Time;durP1;ratioP1;P1;durP2;ratioP2;P2;SDS_P1;SDS_P2;PMS_P1;PMS_P2;Temp;Humidity;BMP_temperature;BMP_pressure;BME280_temperature;BME280_humidity;BME280_pressure;Samples;Min_cycle;Max_cycle;Signal;HPM_P1;HPM_P2
2023/12/29 00:00:02;;;;;;;;;;;;;;;10.20;93.75;101192.25;10412536;28;96860;-90
2023/12/29 00:05:07;;;;;;;;;;;;;;;10.22;93.59;101198.34;10412767;28;97228;-90
2023/12/29 00:10:19;;;;;;;;;;;;;;;10.21;93.27;101199.25;10413811;28;96990;-90
2023/12/29 00:15:26;;;;;;;;;;;;;;;10.13;93.20;101190.66;10413209;28;97203;-90
2023/12/29 00:20:30;;;;;;;;;;;;;;;10.05;93.88;101184.72;10412825;28;97956;-89
2023/12/29 00:25:50;;;;;;;;;;;;;;;10.09;92.84;101181.13;10413237;28;97104;-91
2023/12/29 00:30:53;;;;;;;;;;;;;;;10.10;93.89;101180.22;10412144;28;96626;-90
2023/12/29 00:36:24;;;;;;;;;;;;;;;10.09;94.78;101170.59;10412412;28;97891;-91
2023/12/29 00:41:37;;;;;;;;;;;;;;;10.14;94.75;101161.69;10410908;28;96700;-90
2023/12/29 00:46:48;;;;;;;;;;;;;;;10.18;94.56;101168.63;10412302;28;97058;-90
2023/12/29 00:51:52;;;;;;;;;;;;;;;10.20;94.38;101165.94;10411987;28;96719;-91
2023/12/29 00:57:02;;;;;;;;;;;;;;;10.23;93.72;101169.38;10414725;27;97443;-91
2023/12/29 01:02:09;;;;;;;;;;;;;;;10.22;94.11;101156.25;10418883;28;96672;-91
2023/12/29 01:07:13;;;;;;;;;;;;;;;10.25;93.89;101145.66;10418961;28;97176;-89
2023/12/29 01:12:21;;;;;;;;;;;;;;;10.23;93.46;101135.16;10418579;27;96928;-90
2023/12/29 01:17:30;;;;;;;;;;;;;;;10.20;94.17;101126.50;10418382;28;96707;-89
2023/12/29 01:22:37;;;;;;;;;;;;;;;10.19;93.99;101128.25;10418139;28;96628;-90
2023/12/29 01:27:46;;;;;;;;;;;;;;;10.21;94.55;101121.19;10417515;28;96714;-89
2023/12/29 01:32:50;;;;;;;;;;;;;;;10.25;94.23;101124.59;10416323;28;96825;-90
2023/12/29 01:38:02;;;;;;;;;;;;;;;10.26;94.95;101119.31;10418156;28;97061;-88
2023/12/29 01:43:10;;;;;;;;;;;;;;;10.29;93.75;101123.63;10417780;28;97353;-91
2023/12/29 01:48:16;;;;;;;;;;;;;;;10.26;92.88;101114.03;10422258;28;96636;-91
2023/12/29 01:53:25;;;;;;;;;;;;;;;10.31;93.08;101113.94;10421329;28;97251;-92
2023/12/29 01:58:53;;;;;;;;;;;;;;;10.31;92.84;101119.22;10419765;28;97431;-91
2023/12/29 02:03:59;;;;;;;;;;;;;;;10.36;93.07;101109.44;10418781;28;97152;-91
2023/12/29 02:09:09;;;;;;;;;;;;;;;10.30;92.44;101103.47;10418725;27;97210;-91
2023/12/29 02:14:38;;;;;;;;;;;;;;;10.34;92.70;101111.22;10416254;28;96872;-90
2023/12/29 02:19:44;;;;;;;;;;;;;;;10.25;92.20;101114.09;10417559;28;96713;-92
2023/12/29 02:24:52;;;;;;;;;;;;;;;10.11;93.31;101113.56;10415872;28;96738;-91
2023/12/29 02:30:03;;;;;;;;;;;;;;;10.02;93.38;101108.53;10416057;28;96662;-90
2023/12/29 02:35:12;;;;;;;;;;;;;;;9.91;96.01;101107.91;10416356;28;97230;-89
2023/12/29 02:40:23;;;;;;;;;;;;;;;10.05;95.78;101090.06;10416036;28;97729;-88
2023/12/29 02:45:34;;;;;;;;;;;;;;;10.15;94.72;101099.44;10397166;28;97146;-89
2023/12/29 02:50:38;;;;;;;;;;;;;;;10.18;95.99;101102.00;10415057;28;96764;-91
2023/12/29 02:55:46;;;;;;;;;;;;;;;10.16;95.45;101101.16;10415381;28;96773;-89
2023/12/29 03:00:53;;;;;;;;;;;;;;;10.26;95.37;101103.53;10415712;28;96906;-89
2023/12/29 03:06:04;;;;;;;;;;;;;;;10.24;94.85;101102.72;10414378;28;96983;-88
2023/12/29 03:11:13;;;;;;;;;;;;;;;10.32;95.11;101097.25;10413981;28;96926;-87
2023/12/29 03:16:19;;;;;;;;;;;;;;;10.31;94.98;101097.28;10412727;28;96999;-86
2023/12/29 03:21:25;;;;;;;;;;;;;;;10.38;94.99;101099.75;10412730;28;97039;-89
2023/12/29 03:26:32;;;;;;;;;;;;;;;10.38;94.58;101110.28;10412726;28;97287;-87
2023/12/29 03:31:38;;;;;;;;;;;;;;;10.37;93.83;101091.91;10413404;28;97465;-87
2023/12/29 03:36:42;;;;;;;;;;;;;;;10.34;94.33;101094.56;10413399;28;97309;-87
2023/12/29 03:41:51;;;;;;;;;;;;;;;10.31;94.42;101085.00;10413435;28;97117;-88
2023/12/29 03:46:55;;;;;;;;;;;;;;;10.27;94.25;101078.09;10412483;28;96669;-87
2023/12/29 03:52:00;;;;;;;;;;;;;;;10.32;95.37;101077.97;10413362;28;97374;-87
2023/12/29 03:57:07;;;;;;;;;;;;;;;10.28;94.03;101078.06;10412760;28;97123;-87
2023/12/29 04:02:13;;;;;;;;;;;;;;;10.28;94.98;101078.06;10412064;28;96869;-87
2023/12/29 04:07:17;;;;;;;;;;;;;;;10.19;95.84;101077.44;10411712;28;97266;-86
2023/12/29 04:12:26;;;;;;;;;;;;;;;10.16;95.45;101056.44;10412428;28;97366;-87
2023/12/29 04:17:32;;;;;;;;;;;;;;;10.18;95.34;101055.53;10411858;28;96817;-86
2023/12/29 04:22:37;;;;;;;;;;;;;;;10.12;95.66;101060.06;10412159;28;97332;-87
2023/12/29 04:27:46;;;;;;;;;;;;;;;10.08;96.07;101063.69;10412768;28;97310;-89
2023/12/29 04:32:51;;;;;;;;;;;;;;;10.11;95.62;101058.34;10417650;28;96826;-87
2023/12/29 04:37:55;;;;;;;;;;;;;;;10.13;95.31;101051.28;10419201;28;96741;-86
2023/12/29 04:43:04;;;;;;;;;;;;;;;10.16;94.76;101045.94;10420231;28;97020;-87
2023/12/29 04:48:09;;;;;;;;;;;;;;;10.17;95.95;101045.03;10418770;28;96621;-85
2023/12/29 04:53:13;;;;;;;;;;;;;;;10.21;94.96;101046.69;10418653;28;97547;-86
2023/12/29 04:58:22;;;;;;;;;;;;;;;10.23;95.95;101050.13;10417159;27;96890;-88
2023/12/29 05:03:30;;;;;;;;;;;;;;;10.35;95.31;101047.19;10403681;28;96626;-90
2023/12/29 05:08:37;;;;;;;;;;;;;;;10.33;95.59;101051.66;10405479;28;96674;-91
2023/12/29 05:13:42;;;;;;;;;;;;;;;10.30;94.65;101049.06;10422424;28;96722;-90
2023/12/29 05:18:45;;;;;;;;;;;;;;;10.40;95.30;101041.81;10424157;28;96614;-92
2023/12/29 05:23:53;;;;;;;;;;;;;;;10.42;95.53;101034.75;10403323;28;96752;-90
2023/12/29 05:28:57;;;;;;;;;;;;;;;10.47;95.30;101036.34;10419890;28;97491;-89
2023/12/29 05:34:00;;;;;;;;;;;;;;;10.46;94.95;101045.16;10419410;28;96891;-90
2023/12/29 05:39:07;;;;;;;;;;;;;;;10.39;95.30;101046.22;10418080;28;96808;-88
2023/12/29 05:44:15;;;;;;;;;;;;;;;10.50;94.78;101054.69;10417110;28;96750;-90
2023/12/29 05:49:25;;;;;;;;;;;;;;;10.50;94.69;101056.47;10416279;28;97095;-89
2023/12/29 05:54:29;;;;;;;;;;;;;;;10.49;95.09;101055.59;10408386;28;97273;-89
2023/12/29 05:59:54;;;;;;;;;;;;;;;10.41;94.51;101060.19;10412845;22;97339;-89
2023/12/29 06:05:01;;;;;;;;;;;;;;;10.37;95.60;101050.63;10331120;28;97285;-89
2023/12/29 06:10:05;;;;;;;;;;;;;;;10.38;95.25;101052.38;10333534;28;97124;-88
2023/12/29 06:15:10;;;;;;;;;;;;;;;10.41;95.03;101057.56;10332740;28;97370;-90
2023/12/29 06:20:18;;;;;;;;;;;;;;;10.47;94.87;101057.38;10332715;28;96666;-88
2023/12/29 06:25:24;;;;;;;;;;;;;;;10.40;94.53;101055.84;10333538;28;97180;-87
2023/12/29 06:30:28;;;;;;;;;;;;;;;10.44;94.74;101054.00;10332176;28;96783;-88
2023/12/29 06:35:36;;;;;;;;;;;;;;;10.34;94.50;101053.38;10332937;28;96745;-90
2023/12/29 06:40:43;;;;;;;;;;;;;;;10.32;95.27;101056.91;10331844;28;97278;-91
2023/12/29 06:45:47;;;;;;;;;;;;;;;10.39;95.83;101071.66;10331909;28;96701;-90
2023/12/29 06:50:58;;;;;;;;;;;;;;;10.31;95.49;101060.47;10331963;28;97038;-89
2023/12/29 06:56:23;;;;;;;;;;;;;;;10.36;94.73;101069.97;10330744;28;97556;-91
2023/12/29 07:01:27;;;;;;;;;;;;;;;10.36;94.58;101072.59;10331326;28;96734;-90
2023/12/29 07:06:41;;;;;;;;;;;;;;;10.36;94.08;101074.38;10331270;28;96798;-91
2023/12/29 07:11:49;;;;;;;;;;;;;;;10.37;94.88;101082.22;10331367;28;97244;-90
2023/12/29 07:16:55;;;;;;;;;;;;;;;10.37;94.30;101086.63;10332287;28;96745;-89
2023/12/29 07:22:03;;;;;;;;;;;;;;;10.41;94.39;101080.38;10330565;28;97312;-90
2023/12/29 07:27:07;;;;;;;;;;;;;;;10.43;94.23;101082.06;10330710;28;96715;-91
2023/12/29 07:32:11;;;;;;;;;;;;;;;10.41;94.17;101083.88;10329875;28;96849;-91
2023/12/29 07:37:19;;;;;;;;;;;;;;;10.49;93.99;101088.94;10330997;28;96700;-91
2023/12/29 07:42:23;;;;;;;;;;;;;;;10.48;94.50;101082.81;10331060;28;97485;-91
2023/12/29 07:47:29;;;;;;;;;;;;;;;10.32;94.47;101083.22;10329858;28;98041;-89
2023/12/29 07:52:36;;;;;;;;;;;;;;;10.25;94.85;101082.53;10314729;28;96817;-88
2023/12/29 07:57:41;;;;;;;;;;;;;;;10.30;94.15;101080.63;10329868;28;96606;-88
2023/12/29 08:02:49;;;;;;;;;;;;;;;10.23;94.62;101085.19;10329327;28;96704;-88
2023/12/29 08:07:58;;;;;;;;;;;;;;;10.26;95.76;101092.16;10336114;28;96716;-90
2023/12/29 08:13:02;;;;;;;;;;;;;;;10.16;95.55;101080.13;10338200;28;97070;-89
2023/12/29 08:18:08;;;;;;;;;;;;;;;10.20;95.08;101089.66;10337807;28;97241;-91
2023/12/29 08:23:16;;;;;;;;;;;;;;;10.21;95.44;101087.00;10339083;28;96765;-91
2023/12/29 08:46:29;;;;;;;;;;;;;;;10.34;94.52;101118.25;10071744;28;97252;-91
2023/12/29 08:51:36;;;;;;;;;;;;;;;10.33;94.30;101125.31;10283512;28;97342;-91
2023/12/29 08:56:53;;;;;;;;;;;;;;;10.37;94.79;101126.94;10338076;28;96939;-92
2023/12/29 09:02:02;;;;;;;;;;;;;;;10.31;94.05;101129.75;10338706;28;96963;-91
2023/12/29 09:07:08;;;;;;;;;;;;;;;10.20;95.37;101129.13;10339167;28;96691;-92
2023/12/29 09:12:38;;;;;;;;;;;;;;;10.14;95.85;101137.19;10336911;28;96728;-92
2023/12/29 09:17:45;;;;;;;;;;;;;;;10.07;96.89;101138.22;10334925;28;97127;-91
2023/12/29 09:22:50;;;;;;;;;;;;;;;10.07;97.28;101144.31;10335582;28;96611;-92
2023/12/29 09:27:56;;;;;;;;;;;;;;;10.10;98.02;101141.63;10334902;28;96705;-90
2023/12/29 09:33:10;;;;;;;;;;;;;;;10.10;98.78;101138.13;10334994;28;97255;-90
2023/12/29 09:38:24;;;;;;;;;;;;;;;;;;;;;
2023/12/29 09:43:30;;;;;;;;;;;;;;;10.21;97.97;101150.13;10334237;28;96604;-89
2023/12/29 09:48:40;;;;;;;;;;;;;;;10.41;97.75;101135.63;10330782;28;96824;-89
2023/12/29 09:53:47;;;;;;;;;;;;;;;10.55;97.95;101149.28;10329065;28;97551;-89
2023/12/29 09:58:52;;;;;;;;;;;;;;;10.68;96.19;101154.19;10333153;28;96868;-89
2023/12/29 10:04:01;;;;;;;;;;;;;;;10.76;95.82;101157.53;10333640;28;96733;-90
2023/12/29 10:09:06;;;;;;;;;;;;;;;10.74;95.66;101161.09;10332221;28;96735;-88
2023/12/29 10:14:24;;;;;;;;;;;;;;;10.73;96.52;101162.00;10333007;28;96802;-88
2023/12/29 10:19:38;;;;;;;;;;;;;;;10.82;96.76;101159.97;10332515;28;97011;-88
2023/12/29 10:24:47;;;;;;;;;;;;;;;11.03;96.24;101175.22;10332773;28;97141;-87
2023/12/29 10:29:55;;;;;;;;;;;;;;;11.07;95.09;101168.09;10332031;28;97456;-88
2023/12/29 10:35:11;;;;;;;;;;;;;;;10.97;95.28;101179.78;10332512;28;96887;-88
2023/12/29 10:40:20;;;;;;;;;;;;;;;10.96;94.83;101178.03;10331995;28;96715;-87
2023/12/29 10:45:25;;;;;;;;;;;;;;;11.09;95.72;101180.38;10334320;28;97309;-91
2023/12/29 10:50:44;;;;;;;;;;;;;;;11.22;95.06;101179.13;10332263;28;96858;-89
2023/12/29 10:56:05;;;;;;;;;;;;;;;11.64;93.83;101181.44;10332844;28;97658;-90
2023/12/29 11:01:15;;;;;;;;;;;;;;;12.03;93.49;101164.44;10330461;28;97077;-88
2023/12/29 11:06:31;;;;;;;;;;;;;;;12.52;92.54;101172.50;10331521;28;97011;-90
2023/12/29 11:11:42;;;;;;;;;;;;;;;12.48;92.01;101169.09;10331688;28;97237;-89
2023/12/29 11:16:49;;;;;;;;;;;;;;;12.84;92.03;101164.41;10330863;28;97098;-89
2023/12/29 11:21:58;;;;;;;;;;;;;;;12.62;90.81;101159.88;10330995;28;96641;-89
2023/12/29 11:27:03;;;;;;;;;;;;;;;12.64;90.75;101151.00;10329882;28;98316;-89
2023/12/29 11:32:14;;;;;;;;;;;;;;;12.53;90.75;101153.13;10331167;28;97530;-88
2023/12/29 11:37:30;;;;;;;;;;;;;;;12.55;90.48;101138.06;10330716;28;97065;-87
2023/12/29 11:42:40;;;;;;;;;;;;;;;12.90;89.98;101147.44;10316223;28;96849;-87
2023/12/29 11:47:53;;;;;;;;;;;;;;;13.05;89.02;101144.28;10289152;28;96735;-87
2023/12/29 11:53:04;;;;;;;;;;;;;;;13.25;88.98;101139.13;10370453;28;97112;-87
2023/12/29 11:58:25;;;;;;;;;;;;;;;13.18;89.37;101130.59;10334307;28;97088;-87
2023/12/29 12:03:31;;;;;;;;;;;;;;;13.20;89.41;101120.81;10329627;28;97759;-86
2023/12/29 12:08:39;;;;;;;;;;;;;;;13.03;89.26;101107.38;10330141;28;97482;-86
2023/12/29 12:13:48;;;;;;;;;;;;;;;12.94;89.87;101102.41;10329133;28;96756;-86
2023/12/29 12:18:59;;;;;;;;;;;;;;;12.81;89.46;101079.13;10329074;28;96798;-86
2023/12/29 12:24:08;;;;;;;;;;;;;;;12.97;89.73;101080.28;10329651;28;96626;-85
2023/12/29 12:29:16;;;;;;;;;;;;;;;12.93;90.06;101078.69;10329634;28;96822;-85
2023/12/29 12:34:20;;;;;;;;;;;;;;;12.85;89.26;101081.59;10328812;28;97212;-85
2023/12/29 12:39:39;;;;;;;;;;;;;;;12.79;90.00;101062.47;10318617;28;96704;-84
2023/12/29 12:44:50;;;;;;;;;;;;;;;12.97;89.75;101060.00;10316749;28;97268;-84
2023/12/29 12:50:04;;;;;;;;;;;;;;;13.00;89.18;101044.03;10287548;28;96789;-85
2023/12/29 12:55:16;;;;;;;;;;;;;;;13.01;89.04;101053.72;10294046;28;96696;-84
2023/12/29 13:00:21;;;;;;;;;;;;;;;12.99;89.11;101039.69;10293717;28;96834;-84
2023/12/29 13:05:27;;;;;;;;;;;;;;;12.95;89.44;101035.44;10324811;28;97300;-85
2023/12/29 13:10:42;;;;;;;;;;;;;;;13.00;89.45;101020.25;10335106;28;97075;-84
2023/12/29 13:15:47;;;;;;;;;;;;;;;12.92;90.00;101017.06;10334971;28;97243;-84
2023/12/29 13:20:51;;;;;;;;;;;;;;;12.85;90.08;101007.63;10335085;28;97057;-85
2023/12/29 13:25:58;;;;;;;;;;;;;;;12.86;90.49;100990.84;10334414;28;96785;-84
2023/12/29 13:31:03;;;;;;;;;;;;;;;12.83;90.70;100984.81;10334724;28;96727;-84
2023/12/29 13:36:11;;;;;;;;;;;;;;;12.83;91.16;100990.97;10332672;28;96960;-84
2023/12/29 13:41:18;;;;;;;;;;;;;;;13.10;91.08;100987.31;10333727;28;96907;-84
2023/12/29 13:46:21;;;;;;;;;;;;;;;13.23;90.81;100977.09;10333389;28;96869;-84
2023/12/29 13:51:27;;;;;;;;;;;;;;;13.19;89.59;100973.72;10333690;28;97553;-84
2023/12/29 13:56:33;;;;;;;;;;;;;;;13.22;89.71;100970.13;10333813;28;97189;-83
2023/12/29 14:01:39;;;;;;;;;;;;;;;13.37;89.67;100967.72;10333292;28;98267;-84
2023/12/29 14:06:44;;;;;;;;;;;;;;;13.42;89.50;100962.25;10332436;28;97346;-84
2023/12/29 14:11:51;;;;;;;;;;;;;;;13.49;90.25;100959.31;10333883;28;97534;-84
2023/12/29 14:16:55;;;;;;;;;;;;;;;13.40;90.20;100958.81;10332860;28;97065;-84
2023/12/29 14:21:59;;;;;;;;;;;;;;;13.27;90.55;100955.81;10298601;28;96789;-84
2023/12/29 14:27:04;;;;;;;;;;;;;;;13.29;90.71;100946.00;10319220;28;97395;-84
2023/12/29 14:32:10;;;;;;;;;;;;;;;13.37;90.58;100937.78;10332229;28;97529;-84
2023/12/29 14:37:14;;;;;;;;;;;;;;;13.43;90.13;100935.75;10332064;28;96862;-84
2023/12/29 14:42:18;;;;;;;;;;;;;;;13.40;90.22;100943.81;10331960;28;96735;-84
2023/12/29 14:47:23;;;;;;;;;;;;;;;13.40;90.38;100933.22;10331022;28;97214;-84
2023/12/29 14:52:26;;;;;;;;;;;;;;;13.36;90.18;100939.56;10331595;28;96982;-84
2023/12/29 14:57:35;;;;;;;;;;;;;;;13.55;90.01;100932.59;10331715;28;96858;-84
2023/12/29 15:02:38;;;;;;;;;;;;;;;13.64;89.65;100934.88;10331717;28;98249;-84
2023/12/29 15:07:43;;;;;;;;;;;;;;;13.60;89.26;100930.66;10331078;28;97363;-85
2023/12/29 15:12:50;;;;;;;;;;;;;;;13.69;89.48;100932.06;10330728;28;96810;-84
2023/12/29 15:17:54;;;;;;;;;;;;;;;13.83;89.53;100927.03;10328267;28;96912;-84
2023/12/29 15:23:02;;;;;;;;;;;;;;;13.73;90.00;100919.56;10331351;28;96957;-84
2023/12/29 15:28:09;;;;;;;;;;;;;;;13.65;89.80;100912.81;10330359;28;97113;-84
2023/12/29 15:33:17;;;;;;;;;;;;;;;13.52;90.75;100916.88;10289343;28;96810;-84
2023/12/29 15:38:21;;;;;;;;;;;;;;;13.55;90.94;100913.25;10319731;28;96772;-84
2023/12/29 15:43:29;;;;;;;;;;;;;;;13.46;91.09;100919.78;10310772;28;97238;-84
2023/12/29 15:48:35;;;;;;;;;;;;;;;13.42;90.72;100920.81;10288732;28;96960;-84
2023/12/29 15:53:45;;;;;;;;;;;;;;;13.42;91.10;100915.53;10306907;28;97099;-84
2023/12/29 15:58:52;;;;;;;;;;;;;;;13.47;91.24;100907.41;10329247;28;96700;-84
2023/12/29 16:03:59;;;;;;;;;;;;;;;13.51;91.26;100922.22;10329109;28;97164;-84
2023/12/29 16:09:04;;;;;;;;;;;;;;;13.50;90.97;100917.88;10328245;28;97431;-84
2023/12/29 16:14:12;;;;;;;;;;;;;;;13.47;91.01;100926.78;10329272;28;96756;-84
2023/12/29 16:19:17;;;;;;;;;;;;;;;13.45;91.18;100919.81;10288069;28;96609;-84
2023/12/29 16:24:22;;;;;;;;;;;;;;;13.43;91.20;100922.53;10299177;28;97070;-84
2023/12/29 16:29:30;;;;;;;;;;;;;;;13.44;91.38;100920.75;10334388;28;96668;-84
2023/12/29 16:34:34;;;;;;;;;;;;;;;13.39;91.67;100920.09;10368734;28;96683;-84
2023/12/29 16:39:42;;;;;;;;;;;;;;;13.30;91.78;100921.31;10350533;28;96903;-84
2023/12/29 16:44:51;;;;;;;;;;;;;;;13.21;92.34;100920.81;10312549;28;96612;-84
2023/12/29 16:49:55;;;;;;;;;;;;;;;13.15;92.76;100927.22;10335380;28;96800;-84
2023/12/29 16:55:02;;;;;;;;;;;;;;;13.05;92.47;100925.84;10335493;28;96938;-85
2023/12/29 17:00:11;;;;;;;;;;;;;;;12.94;92.61;100920.13;10333762;28;97240;-86
2023/12/29 17:05:15;;;;;;;;;;;;;;;12.90;93.45;100925.56;10335069;28;96837;-86
2023/12/29 17:10:20;;;;;;;;;;;;;;;12.95;93.33;100928.88;10335107;28;97012;-86
2023/12/29 17:15:27;;;;;;;;;;;;;;;12.97;93.71;100929.69;10308393;28;96766;-86
2023/12/29 17:20:31;;;;;;;;;;;;;;;12.99;93.82;100938.44;10325474;28;97329;-86
2023/12/29 17:25:35;;;;;;;;;;;;;;;12.96;93.76;100949.13;10334352;28;96746;-86
2023/12/29 17:30:55;;;;;;;;;;;;;;;12.96;93.86;100962.31;10352502;28;97348;-86
2023/12/29 17:36:01;;;;;;;;;;;;;;;12.91;93.83;100954.59;10356998;28;99014;-87
2023/12/29 17:41:28;;;;;;;;;;;;;;;12.90;94.09;100955.50;10160095;28;97078;-91
2023/12/29 17:46:35;;;;;;;;;;;;;;;12.83;93.81;100956.63;10294167;28;96888;-91
2023/12/29 17:51:50;;;;;;;;;;;;;;;;;;;;;
2023/12/29 18:03:42;;;;;;;;;;;;;;;12.87;94.29;100957.38;10122985;28;97112;-90
2023/12/29 19:24:53;;;;;;;;;;;;;;;12.43;95.56;100983.59;10121334;28;97576;-90
2023/12/29 19:47:13;;;;;;;;;;;;;;;12.45;95.02;100978.28;10327999;28;96962;-90
2023/12/29 19:52:24;;;;;;;;;;;;;;;12.49;95.53;100971.97;10330280;28;96775;-89
2023/12/29 19:57:28;;;;;;;;;;;;;;;12.36;95.76;100962.75;10331019;28;96705;-90
2023/12/29 20:02:36;;;;;;;;;;;;;;;12.31;96.15;100962.06;10333711;28;96644;-89
2023/12/29 20:07:43;;;;;;;;;;;;;;;12.26;96.55;100961.38;10337658;28;96666;-90
2023/12/29 20:12:51;;;;;;;;;;;;;;;12.26;95.62;100964.00;10336964;28;96710;-89
2023/12/29 20:18:08;;;;;;;;;;;;;;;12.17;95.78;100967.81;10336665;28;96734;-90
2023/12/29 20:23:14;;;;;;;;;;;;;;;12.24;95.87;100977.25;10337440;28;96726;-89
2023/12/29 20:28:18;;;;;;;;;;;;;;;12.30;96.31;100986.75;10336527;28;96750;-90
2023/12/29 20:33:25;;;;;;;;;;;;;;;12.35;96.46;100990.06;10336930;28;97341;-89
2023/12/29 20:38:30;;;;;;;;;;;;;;;12.34;96.65;100983.09;10336143;28;96960;-89
2023/12/29 20:43:34;;;;;;;;;;;;;;;12.38;96.11;100985.56;10349184;28;97500;-89
2023/12/29 20:48:49;;;;;;;;;;;;;;;12.27;96.89;100987.69;10376969;28;97156;-89
2023/12/29 20:54:00;;;;;;;;;;;;;;;12.21;96.91;100987.06;10377993;28;97244;-89
2023/12/29 20:59:04;;;;;;;;;;;;;;;12.18;96.47;100992.44;10377566;28;97084;-89
2023/12/29 21:04:14;;;;;;;;;;;;;;;12.14;96.31;100991.69;10377691;28;96901;-89
2023/12/29 21:09:19;;;;;;;;;;;;;;;12.13;97.02;100989.09;10376552;28;96718;-89
2023/12/29 21:14:29;;;;;;;;;;;;;;;12.10;97.31;100987.41;10376211;28;97550;-88
2023/12/29 21:19:37;;;;;;;;;;;;;;;12.11;98.44;100985.66;10375867;28;96732;-88
2023/12/29 21:24:45;;;;;;;;;;;;;;;12.08;98.88;100991.88;10376176;28;97153;-89
2023/12/29 21:29:54;;;;;;;;;;;;;;;12.09;99.00;100996.25;10374793;28;96751;-89
2023/12/29 21:35:12;;;;;;;;;;;;;;;12.10;98.20;100999.78;10375485;28;97345;-88
2023/12/29 21:40:16;;;;;;;;;;;;;;;12.09;98.06;100996.25;10375659;28;96732;-89
2023/12/29 21:45:23;;;;;;;;;;;;;;;12.09;98.79;100998.03;10375158;28;97336;-88
2023/12/29 21:50:32;;;;;;;;;;;;;;;12.06;98.99;100995.50;10374980;28;96806;-89
2023/12/29 21:55:38;;;;;;;;;;;;;;;12.06;99.07;101004.28;10375040;28;96679;-88
2023/12/29 22:00:44;;;;;;;;;;;;;;;12.03;99.48;100999.09;10374885;28;96690;-88
2023/12/29 22:05:57;;;;;;;;;;;;;;;12.05;99.83;100997.25;10375693;28;96702;-88
2023/12/29 22:11:01;;;;;;;;;;;;;;;12.06;100.00;100996.38;10375162;28;97050;-91
2023/12/29 22:16:09;;;;;;;;;;;;;;;12.13;99.61;100994.38;10375008;28;97450;-90
2023/12/29 22:21:31;;;;;;;;;;;;;;;;;;;;;
2023/12/29 22:26:37;;;;;;;;;;;;;;;12.25;98.51;100996.59;10373108;28;97043;-90
2023/12/29 22:31:47;;;;;;;;;;;;;;;12.18;98.36;100988.03;10374268;28;97117;-90
2023/12/29 22:36:54;;;;;;;;;;;;;;;12.09;99.33;100998.03;10374440;28;97074;-90
2023/12/29 22:42:01;;;;;;;;;;;;;;;12.11;98.84;100989.16;10373036;28;97608;-90
2023/12/29 22:47:12;;;;;;;;;;;;;;;12.08;98.61;100978.69;10373823;28;97585;-88
2023/12/29 22:52:22;;;;;;;;;;;;;;;12.07;99.24;100976.97;10373681;28;97169;-90
2023/12/29 22:57:27;;;;;;;;;;;;;;;12.13;99.60;100982.03;10373527;28;96664;-89
2023/12/29 23:02:32;;;;;;;;;;;;;;;12.23;99.59;100978.19;10373294;28;96639;-89
2023/12/29 23:07:52;;;;;;;;;;;;;;;12.20;97.85;100970.34;10372319;28;96773;-90
2023/12/29 23:13:03;;;;;;;;;;;;;;;12.27;98.41;100974.50;10371396;28;96709;-90
2023/12/29 23:18:14;;;;;;;;;;;;;;;12.22;98.13;100971.16;10372202;28;97373;-89
2023/12/29 23:23:21;;;;;;;;;;;;;;;12.28;98.23;100964.81;10372316;28;96686;-89
2023/12/29 23:28:32;;;;;;;;;;;;;;;12.30;97.74;100971.78;10371250;28;96847;-90
2023/12/29 23:33:38;;;;;;;;;;;;;;;12.28;97.25;100973.59;10372212;28;96976;-90
2023/12/29 23:38:46;;;;;;;;;;;;;;;12.20;97.67;100980.91;10371063;28;97091;-90
2023/12/29 23:44:12;;;;;;;;;;;;;;;12.11;98.93;100973.31;10371641;28;97088;-91
2023/12/29 23:49:31;;;;;;;;;;;;;;;12.17;98.51;100973.09;10368916;28;96974;-93
2023/12/29 23:54:39;;;;;;;;;;;;;;;12.26;98.55;100977.19;10372794;28;96748;-93
2023/12/29 23:59:45;;;;;;;;;;;;;;;12.10;98.61;100970.75;10372125;28;97327;-93
